Free Practice 1 – Peurunka

POSIT NUM DRIVER NAT BOAT LAPS BEST LAP AT SPEED Km/h
1 17 Sami Selio FIN BABA 20 00:44:10 20 138,8
2 21 Erik Edin SWE Molgaard 27 00:44:16 27 138,6
3 19 Stefan Hagin GER Molgaard 12 00:44:63 8 137,1
4 44 Alberto Comparato ITA DAC 15 00:45:00 15 136,0
5 74 Alex Carella UAE DAC 21 00:45:10 6 135,7
6 41 Edgaras Riabko LT DAC 29 00:45:44 26 134,7
7 13 Matthew Palfreyman GBR Moore 26 00:45:53 25 134,4
8 1 Pierre Lundin SWE Moore 17 00:45:75 5 133,8
9 51 Uvis Slakteris LAT Molgaard 22 00:45:85 12 133,5
10 10 Oskar Samuelsson SWE Molgaard 19 00:45:97 7 133,1
11 3 Owen Jelf GBR BaBa 22 00:46:16 16 132,6
12 11 Bimba Sjöholm SWE Molgaard 18 00:46:18 3 132,5
13 20 Konstantin Ustinov RUS DAC 27 00:46:43 26 131,8
14 5 Rupert Temper AT DAC 11 00:46:53 11 131,5
15 88 Pal Virik Nilsen NOR Molgaard 17 00:47:16 17 129,8
16 2 Johan Österberg SWE Molgaard 22 00:47:63 7 128,5
17 6 Ola Pettersson SWE Molgaard 12 00:47:87 11 127,8
18 77 Tobias Munthe-Kaas NOR BaBa 16 00:47:90 11 127,8
19 55 Frode Sundsdal NOR DAC 24 00:48:03 24 127,4
20 50 Nick Bisterfeld GER DAC 12 00:48:34 8 126,6
21 22 Roman Vandyshev RUS DAC 10 00:49:40 5 123,9
22 54 Daniel Segenmark SWE Moore 9 00:51:85 3 118,0
23 12 Harri Lehti FIN ADIMC 6 00:58:84 4 104,0
24 9 Mette B. Bjerknæs NOR Moore 0 00:00:00 0 0,0